Burnham, Illinois
Current Conditions -  °F | °C
As of 8:45 AM on Saturday 25 Oct 2014 (Local Time) from KGYY Reporting Station
Haze Haze  
Wind Chill: 59°   Ceiling: Unl
Heat Index: 59°   Visibility: 5mi
Dew Point: 55°   Wind: 8mph
Humidity: 88%   Direction: 240°WSW
Pressure: 29.93"   Gusts: NA
Location:  41.6563°N, 87.5444°W
Report Text: KGYY 251345Z 24007KT 5SM BR SCT007 15/13 A2993
Loading
Personal Weather Stations






























Interactive Weather Map New forecast layout! Learn more

10-Day Weather Forecast

Advertisements
Track Severe Weather on mobile